Time;durP1;ratioP1;P1;durP2;ratioP2;P2;SDS_P1;SDS_P2;PMS_P1;PMS_P2;Temp;Humidity;BMP_temperature;BMP_pressure;BME280_temperature;BME280_humidity;BME280_pressure;Samples;Min_cycle;Max_cycle;Signal;HPM_P1;HPM_P2
2024/04/19 00:02:01;;;;;;;1.27;0.35;;;;;;;3.02;60.02;101041.56;5359896;26;20465;-75
2024/04/19 00:04:27;;;;;;;1.52;0.30;;;;;;;3.06;59.85;101026.03;5362087;26;20571;-74
2024/04/19 00:06:52;;;;;;;3.05;0.52;;;;;;;2.50;61.54;101025.47;5356377;26;20004;-71
2024/04/19 00:09:17;;;;;;;4.75;0.60;;;;;;;2.73;61.02;101015.06;5393299;26;20011;-71
2024/04/19 00:11:43;;;;;;;1.73;0.90;;;;;;;2.65;61.64;101009.06;5396825;26;20014;-73
2024/04/19 00:14:08;;;;;;;4.75;0.77;;;;;;;2.94;61.56;100992.56;5368193;26;20233;-73
2024/04/19 00:16:34;;;;;;;3.15;0.70;;;;;;;2.50;62.13;100983.31;5338192;26;20522;-73
2024/04/19 00:19:00;;;;;;;2.45;0.55;;;;;;;2.72;61.45;100977.19;5366261;26;20754;-74
2024/04/19 00:21:25;;;;;;;3.08;0.70;;;;;;;2.51;62.73;100973.00;5400978;26;20042;-73
2024/04/19 00:23:51;;;;;;;2.75;0.55;;;;;;;2.30;62.98;100968.78;5402824;26;20354;-73
2024/04/19 00:26:17;;;;;;;2.63;0.80;;;;;;;2.66;62.26;100958.28;5394722;26;19999;-72
2024/04/19 00:28:42;;;;;;;2.55;1.10;;;;;;;2.67;62.57;100953.13;5391899;26;20444;-73
2024/04/19 00:31:08;;;;;;;1.52;0.50;;;;;;;2.60;62.59;100945.41;5397246;26;20340;-75
2024/04/19 00:33:34;;;;;;;2.20;0.90;;;;;;;2.73;62.08;100936.72;5399799;26;20011;-74
2024/04/19 00:36:00;;;;;;;7.10;1.85;;;;;;;2.67;61.93;100927.31;5384866;26;20102;-74
2024/04/19 00:38:26;;;;;;;2.22;1.10;;;;;;;2.70;62.59;100921.28;5400362;25;20015;-74
2024/04/19 00:40:54;;;;;;;1.33;0.80;;;;;;;2.57;62.99;100910.16;5393873;26;20013;-73
2024/04/19 00:43:20;;;;;;;2.88;0.95;;;;;;;2.03;63.93;100912.16;5422030;26;20023;-74
2024/04/19 00:45:46;;;;;;;1.80;0.68;;;;;;;2.46;63.58;100897.31;5398081;26;20013;-74
2024/04/19 00:48:16;;;;;;;2.30;1.40;;;;;;;2.75;62.26;100886.81;5394085;26;20010;-74
2024/04/19 00:50:57;;;;;;;4.97;0.70;;;;;;;2.66;62.96;100889.47;5386863;26;20022;-73
2024/04/19 00:53:26;;;;;;;3.47;0.95;;;;;;;2.44;63.11;100885.31;5393854;26;20603;-75
2024/04/19 00:55:54;;;;;;;3.75;1.70;;;;;;;2.18;63.71;100870.84;5389481;26;20009;-75
2024/04/19 00:58:19;;;;;;;3.67;0.80;;;;;;;2.41;63.65;100862.13;5402872;26;20003;-75
2024/04/19 01:00:45;;;;;;;2.28;1.02;;;;;;;2.60;63.31;100863.72;5389070;26;20058;-75
2024/04/19 01:03:12;;;;;;;4.70;1.10;;;;;;;2.62;62.96;100854.22;5398782;26;21016;-75
2024/04/19 01:05:38;;;;;;;1.80;0.70;;;;;;;2.50;62.93;100851.75;5399211;26;20014;-75
2024/04/19 01:08:24;;;;;;;3.13;1.33;;;;;;;2.07;64.48;100846.84;5380817;26;20368;-75
2024/04/19 01:10:50;;;;;;;5.10;1.23;;;;;;;2.49;63.77;100834.56;5372470;26;21576;-73
2024/04/19 01:13:15;;;;;;;2.63;0.65;;;;;;;2.31;64.01;100820.91;5396705;26;20017;-73
2024/04/19 01:15:41;;;;;;;2.83;1.20;;;;;;;2.93;62.57;100816.09;5391471;26;20061;-73
2024/04/19 01:18:09;;;;;;;5.28;1.25;;;;;;;2.65;62.58;100812.94;5396260;26;20002;-73
2024/04/19 01:20:35;;;;;;;2.17;1.00;;;;;;;2.61;63.23;100803.50;5400107;26;20022;-73
2024/04/19 01:23:01;;;;;;;8.30;1.30;;;;;;;2.77;62.72;100799.91;5383968;26;21083;-73
2024/04/19 01:25:34;;;;;;;3.47;1.27;;;;;;;1.96;64.61;100786.75;5395238;26;20013;-73
2024/04/19 01:28:00;;;;;;;2.55;1.73;;;;;;;2.48;63.72;100789.81;5387666;26;20022;-73
2024/04/19 01:30:25;;;;;;;4.10;1.42;;;;;;;2.10;65.10;100767.75;5406323;26;20080;-73
2024/04/19 01:32:50;;;;;;;2.47;1.35;;;;;;;2.84;62.97;100771.47;5403732;26;20113;-73
2024/04/19 01:35:16;;;;;;;3.63;1.60;;;;;;;2.43;63.89;100760.63;5403517;26;20170;-72
2024/04/19 01:37:42;;;;;;;4.03;1.63;;;;;;;2.77;62.88;100752.59;5391597;26;20018;-72
2024/04/19 01:40:08;;;;;;;2.75;1.23;;;;;;;2.21;64.50;100746.19;5395687;26;20021;-70
2024/04/19 01:42:33;;;;;;;4.88;1.58;;;;;;;2.89;62.88;100736.13;5404633;26;20018;-70
2024/04/19 01:45:02;;;;;;;4.85;1.70;;;;;;;2.29;65.09;100729.78;5388107;26;20448;-70
2024/04/19 01:47:28;;;;;;;2.60;1.38;;;;;;;2.48;63.93;100727.06;5398499;26;20006;-74
2024/04/19 01:49:53;;;;;;;2.22;1.38;;;;;;;2.44;64.70;100710.72;5398474;26;20714;-74
2024/04/19 01:52:19;;;;;;;2.30;1.58;;;;;;;2.27;64.33;100716.06;5395944;26;20664;-74
2024/04/19 01:54:44;;;;;;;4.93;1.73;;;;;;;2.35;64.06;100709.13;5346055;26;20035;-74
2024/04/19 01:57:10;;;;;;;4.53;1.50;;;;;;;2.64;63.96;100692.50;5354639;26;20025;-74
2024/04/19 01:59:36;;;;;;;4.93;2.08;;;;;;;2.52;64.01;100690.91;5357638;26;19996;-74
2024/04/19 02:02:02;;;;;;;5.47;1.63;;;;;;;2.35;64.80;100685.91;5358247;26;20018;-74
2024/04/19 02:04:27;;;;;;;2.85;1.60;;;;;;;2.40;64.83;100683.28;5348953;26;20336;-74
2024/04/19 02:06:53;;;;;;;3.45;2.08;;;;;;;3.01;63.01;100675.78;5354043;26;20011;-69
2024/04/19 02:09:35;;;;;;;3.30;1.65;;;;;;;2.71;63.97;100665.78;5406402;26;20319;-71
2024/04/19 02:12:01;;;;;;;5.28;1.42;;;;;;;2.39;64.82;100645.44;5400116;26;20007;-69
2024/04/19 02:14:27;;;;;;;3.55;2.22;;;;;;;2.63;63.94;100651.25;5408565;26;20023;-71
2024/04/19 02:16:53;;;;;;;4.93;2.20;;;;;;;2.44;64.75;100640.25;5392362;26;20487;-70
2024/04/19 02:19:20;;;;;;;4.60;2.40;;;;;;;2.74;64.12;100634.75;5369484;26;23370;-70
2024/04/19 02:21:46;;;;;;;3.15;2.03;;;;;;;2.61;64.26;100622.00;5339593;26;20445;-71
2024/04/19 02:24:11;;;;;;;4.32;2.17;;;;;;;2.38;64.83;100609.34;5387056;26;20035;-71
2024/04/19 02:26:37;;;;;;;3.92;2.15;;;;;;;2.25;65.65;100608.63;5406024;26;20419;-70
2024/04/19 02:31:46;;;;;;;3.28;2.50;;;;;;;2.45;65.49;100587.78;5399697;26;20080;-71
2024/04/19 02:34:11;;;;;;;3.30;1.80;;;;;;;2.72;64.45;100589.19;5406645;26;19995;-71
2024/04/19 02:36:37;;;;;;;3.63;2.25;;;;;;;2.44;64.46;100574.00;5409086;26;20060;-75
2024/04/19 02:39:02;;;;;;;4.60;2.65;;;;;;;2.88;63.96;100569.22;5392805;26;20030;-75
2024/04/19 02:41:28;;;;;;;5.18;2.58;;;;;;;2.61;63.77;100555.78;5405711;26;20007;-68
2024/04/19 02:43:53;;;;;;;4.32;2.42;;;;;;;2.33;65.22;100544.91;5367832;26;20122;-69
2024/04/19 02:46:19;;;;;;;6.93;3.25;;;;;;;2.46;64.85;100536.16;5350715;26;20014;-69
2024/04/19 02:48:46;;;;;;;5.25;3.50;;;;;;;2.66;64.48;100535.91;5354711;26;20011;-68
2024/04/19 02:51:12;;;;;;;4.40;2.80;;;;;;;2.00;66.72;100512.59;5352889;26;20050;-68
2024/04/19 02:53:37;;;;;;;4.75;2.22;;;;;;;2.98;64.23;100519.16;5363434;26;20006;-68
2024/04/19 02:56:05;;;;;;;3.50;2.53;;;;;;;2.46;65.47;100507.78;5392663;26;20014;-68
2024/04/19 02:58:30;;;;;;;3.45;2.65;;;;;;;2.76;65.16;100505.69;5395959;26;20524;-68
2024/04/19 03:00:56;;;;;;;2.83;2.38;;;;;;;2.22;66.67;100510.66;5391333;26;20004;-68
2024/04/19 03:03:21;;;;;;;5.78;3.05;;;;;;;2.00;66.97;100504.88;5387887;26;20007;-68
2024/04/19 03:05:47;;;;;;;5.03;2.67;;;;;;;2.26;66.15;100495.13;5348768;26;20470;-68
2024/04/19 03:08:13;;;;;;;5.30;2.97;;;;;;;2.27;66.76;100489.09;5356664;26;20491;-68
2024/04/19 03:10:39;;;;;;;3.75;2.33;;;;;;;2.60;66.20;100479.25;5366690;26;19991;-68
2024/04/19 03:13:07;;;;;;;5.65;2.55;;;;;;;2.97;65.38;100487.31;5379631;26;22076;-69
2024/04/19 03:15:33;;;;;;;2.53;1.73;;;;;;;2.71;65.47;100485.13;5402084;26;20090;-69
2024/04/19 03:17:58;;;;;;;3.45;1.70;;;;;;;3.17;64.14;100474.09;5393644;26;20527;-69
2024/04/19 03:20:24;;;;;;;3.00;1.73;;;;;;;3.01;64.38;100472.63;5392927;26;20489;-69
2024/04/19 03:22:49;;;;;;;2.10;1.67;;;;;;;2.74;64.99;100467.00;5392095;26;20062;-68
2024/04/19 03:25:15;;;;;;;2.50;1.65;;;;;;;3.02;65.07;100478.66;5392462;26;20006;-70
2024/04/19 03:27:41;;;;;;;3.03;2.17;;;;;;;2.56;66.25;100465.53;5400692;26;20087;-70
2024/04/19 03:30:06;;;;;;;2.45;1.55;;;;;;;3.07;65.18;100464.81;5389785;26;20006;-71
2024/04/19 03:32:32;;;;;;;3.47;1.65;;;;;;;2.96;65.57;100458.97;5397559;26;20021;-70
2024/04/19 03:34:58;;;;;;;4.60;2.03;;;;;;;3.59;63.34;100445.88;5359215;26;20015;-70
2024/04/19 03:37:23;;;;;;;7.05;1.88;;;;;;;3.27;64.01;100448.13;5327146;26;20021;-70
2024/04/19 03:39:49;;;;;;;2.55;1.70;;;;;;;3.06;64.83;100439.84;5363433;26;20021;-71
2024/04/19 03:42:18;;;;;;;2.17;1.63;;;;;;;2.93;64.91;100436.59;5354094;26;20022;-73
2024/04/19 03:47:29;;;;;;;2.30;1.50;;;;;;;2.85;65.33;100429.88;5355586;26;20673;-71
2024/04/19 03:49:55;;;;;;;2.33;1.65;;;;;;;3.44;63.84;100429.81;5391708;26;20019;-70
2024/04/19 03:52:21;;;;;;;1.73;1.00;;;;;;;3.35;64.13;100425.63;5395471;26;20006;-70
2024/04/19 03:54:46;;;;;;;1.92;1.27;;;;;;;3.49;63.98;100423.69;5403037;26;20789;-70
2024/04/19 03:57:11;;;;;;;1.75;1.17;;;;;;;3.70;63.36;100421.59;5388051;26;20468;-70
2024/04/19 03:59:38;;;;;;;2.42;0.80;;;;;;;3.12;64.91;100424.25;5394905;26;20137;-69
2024/04/19 04:02:12;;;;;;;2.67;1.20;;;;;;;3.58;63.94;100417.47;5372688;26;21025;-67
2024/04/19 04:04:53;;;;;;;4.80;1.67;;;;;;;3.09;65.58;100419.16;5397368;26;20003;-70
2024/04/19 04:07:19;;;;;;;1.75;0.70;;;;;;;3.79;63.76;100411.91;5396293;26;20012;-70
2024/04/19 04:09:44;;;;;;;0.98;0.60;;;;;;;3.22;65.61;100417.22;5398325;26;20007;-70
2024/04/19 04:12:09;;;;;;;1.02;0.40;;;;;;;3.75;64.29;100414.59;5392261;26;20006;-70
2024/04/19 04:14:36;;;;;;;1.38;0.70;;;;;;;3.82;63.68;100402.41;5363046;26;20007;-73
2024/04/19 04:17:01;;;;;;;1.52;0.52;;;;;;;3.49;64.77;100395.28;5354409;26;19999;-72
2024/04/19 04:19:27;;;;;;;0.98;0.57;;;;;;;3.78;64.02;100396.44;5351557;26;20018;-73
2024/04/19 04:21:52;;;;;;;2.55;0.65;;;;;;;3.77;64.17;100402.50;5372123;26;20009;-72
2024/04/19 04:24:17;;;;;;;3.38;0.75;;;;;;;3.64;64.77;100393.25;5353721;26;20534;-67
2024/04/19 04:26:43;;;;;;;6.28;1.02;;;;;;;4.06;63.54;100383.81;5357764;26;20393;-68
2024/04/19 04:29:08;;;;;;;1.15;0.52;;;;;;;4.29;62.49;100385.91;5320273;26;20047;-68
2024/04/19 04:31:34;;;;;;;1.77;0.73;;;;;;;4.23;62.76;100383.47;5354505;26;20003;-67
2024/04/19 04:34:00;;;;;;;5.00;0.90;;;;;;;4.23;62.94;100386.06;5355553;26;20007;-66
2024/04/19 04:36:25;;;;;;;0.75;0.60;;;;;;;4.18;62.99;100383.53;5357999;26;21144;-68
2024/04/19 04:38:51;;;;;;;2.63;0.80;;;;;;;4.36;62.92;100384.91;5380778;26;20696;-67
2024/04/19 04:41:16;;;;;;;1.92;0.95;;;;;;;4.47;62.49;100378.63;5388605;26;20050;-68
2024/04/19 04:43:42;;;;;;;2.33;1.10;;;;;;;4.19;63.55;100379.25;5394728;26;20022;-68
2024/04/19 04:46:07;;;;;;;1.17;0.70;;;;;;;4.51;62.79;100377.66;5389287;26;20517;-68
2024/04/19 04:48:33;;;;;;;2.65;1.08;;;;;;;4.46;63.13;100377.78;5390765;26;21007;-67
2024/04/19 04:50:59;;;;;;;4.57;1.10;;;;;;;4.46;63.24;100382.09;5397042;26;20035;-68
2024/04/19 04:53:26;;;;;;;1.88;0.90;;;;;;;4.81;62.22;100376.09;5390399;26;20049;-68
2024/04/19 04:55:53;;;;;;;1.95;1.55;;;;;;;4.89;61.94;100379.38;5399440;26;20076;-68
2024/04/19 04:58:18;;;;;;;4.40;1.23;;;;;;;4.71;62.96;100372.88;5393698;26;20468;-72
2024/04/19 05:00:46;;;;;;;3.38;0.70;;;;;;;5.04;62.28;100373.84;5399273;26;19998;-73
2024/04/19 05:03:12;;;;;;;5.03;1.13;;;;;;;5.11;62.25;100377.13;5368351;26;20014;-73
2024/04/19 05:05:38;;;;;;;1.73;0.55;;;;;;;4.86;63.19;100374.25;5402847;26;20007;-71
2024/04/19 05:08:03;;;;;;;16.38;0.93;;;;;;;4.94;63.34;100381.88;5384865;26;20007;-70
2024/04/19 05:10:29;;;;;;;5.65;0.50;;;;;;;5.13;62.79;100374.50;5402291;26;20019;-71
2024/04/19 05:12:56;;;;;;;5.43;1.13;;;;;;;5.29;62.01;100373.22;5398209;26;20783;-68
2024/04/19 05:15:22;;;;;;;9.50;0.70;;;;;;;5.09;62.89;100378.91;5393136;26;20188;-72
2024/04/19 05:17:48;;;;;;;4.15;0.60;;;;;;;5.27;62.27;100376.75;5400837;26;20010;-72
2024/04/19 05:20:13;;;;;;;8.02;1.10;;;;;;;5.02;62.69;100378.19;5387369;26;20006;-72
2024/04/19 05:22:39;;;;;;;6.50;0.80;;;;;;;5.29;61.85;100372.38;5435399;26;20000;-70
2024/04/19 05:25:06;;;;;;;17.85;0.98;;;;;;;4.93;61.49;100369.81;5395332;26;20003;-71
2024/04/19 05:27:31;;;;;;;12.82;1.00;;;;;;;5.10;60.88;100372.84;5379512;26;20767;-71
2024/04/19 05:29:56;;;;;;;12.98;1.23;;;;;;;5.33;60.08;100371.41;5372227;26;20007;-71
2024/04/19 05:32:22;;;;;;;11.48;1.48;;;;;;;5.16;60.46;100370.06;5360749;26;20471;-70
2024/04/19 05:34:48;;;;;;;8.32;0.80;;;;;;;5.19;59.88;100366.56;5360564;26;20011;-68
2024/04/19 05:37:14;;;;;;;6.20;0.85;;;;;;;5.53;59.17;100365.69;5354262;26;20145;-72
2024/04/19 05:39:39;;;;;;;6.32;0.63;;;;;;;5.44;58.80;100366.78;5367324;26;20448;-71
2024/04/19 05:42:05;;;;;;;10.75;1.40;;;;;;;5.83;58.17;100374.34;5367254;26;20083;-69
2024/04/19 05:44:33;;;;;;;7.72;0.68;;;;;;;5.30;58.39;100367.16;5370283;26;20068;-71
2024/04/19 05:46:59;;;;;;;5.18;0.93;;;;;;;5.66;57.17;100365.31;5364425;26;20007;-70
2024/04/19 05:49:24;;;;;;;13.10;1.20;;;;;;;5.57;57.77;100362.97;5366318;26;20012;-74
2024/04/19 05:51:50;;;;;;;6.93;0.70;;;;;;;5.44;57.11;100361.59;5347132;26;20020;-73
2024/04/19 05:54:15;;;;;;;16.80;0.95;;;;;;;5.53;57.28;100358.75;5331599;26;19996;-74
2024/04/19 05:56:41;;;;;;;13.63;0.63;;;;;;;5.65;56.96;100357.56;5339109;26;20609;-74
2024/04/19 05:59:06;;;;;;;8.07;1.45;;;;;;;5.46;57.21;100358.06;5362234;26;20022;-71
2024/04/19 06:01:32;;;;;;;11.30;1.10;;;;;;;5.66;56.03;100354.94;5354585;26;20461;-75
2024/04/19 06:03:57;;;;;;;7.10;0.30;;;;;;;5.62;56.20;100358.50;5389433;25;20400;-71
2024/04/19 06:06:23;;;;;;;5.32;0.90;;;;;;;5.83;55.84;100362.22;5386996;26;20447;-69
2024/04/19 06:08:49;;;;;;;7.18;0.47;;;;;;;5.77;55.58;100367.59;5402755;26;21891;-72
2024/04/19 06:11:15;;;;;;;6.47;0.52;;;;;;;5.75;55.75;100363.34;5395046;26;20025;-72
2024/04/19 06:13:41;;;;;;;6.97;0.82;;;;;;;5.36;56.35;100364.38;5397111;26;20003;-72
2024/04/19 06:16:10;;;;;;;6.38;0.40;;;;;;;5.77;55.70;100361.53;5395153;26;20021;-69
2024/04/19 06:18:39;;;;;;;15.57;0.73;;;;;;;5.95;55.40;100366.25;5376611;25;20043;-70
2024/04/19 06:21:05;;;;;;;2.65;0.30;;;;;;;6.86;52.92;100358.28;5362479;26;20583;-69
2024/04/19 06:23:30;;;;;;;9.73;1.27;;;;;;;7.58;51.66;100350.66;5349260;25;20044;-69
2024/04/19 06:26:02;;;;;;;4.25;0.43;;;;;;;7.43;49.87;100346.81;5368652;26;20011;-71
2024/04/19 06:28:30;;;;;;;2.05;0.55;;;;;;;7.14;50.00;100350.41;5351238;26;20059;-70
2024/04/19 06:31:05;;;;;;;8.25;0.50;;;;;;;7.00;50.43;100348.28;5363955;26;20025;-72
2024/04/19 06:33:30;;;;;;;0.90;0.13;;;;;;;6.59;51.42;100347.03;5348442;26;20025;-70
2024/04/19 06:35:57;;;;;;;3.20;0.63;;;;;;;6.39;51.15;100345.91;5361164;26;20008;-71
2024/04/19 06:38:23;;;;;;;3.88;0.32;;;;;;;6.66;50.83;100344.22;5347578;26;20016;-70
2024/04/19 06:40:48;;;;;;;2.15;0.10;;;;;;;6.47;50.86;100338.72;5359438;26;20202;-72
2024/04/19 06:43:15;;;;;;;8.30;0.30;;;;;;;6.67;51.15;100334.66;5353714;26;20023;-72
2024/04/19 06:45:41;;;;;;;3.22;0.57;;;;;;;6.22;51.11;100335.19;5361652;26;20011;-73
2024/04/19 06:48:07;;;;;;;5.75;0.20;;;;;;;7.56;48.16;100326.47;5353975;26;20439;-69
2024/04/19 06:50:32;;;;;;;8.32;0.30;;;;;;;8.35;45.72;100332.16;5355352;26;20004;-69
2024/04/19 06:52:58;;;;;;;7.82;1.08;;;;;;;8.37;45.79;100327.75;5368085;26;20031;-69
2024/04/19 06:55:23;;;;;;;5.45;0.10;;;;;;;8.04;46.91;100333.34;5351755;26;20938;-68
2024/04/19 06:57:49;;;;;;;2.70;0.20;;;;;;;7.95;47.34;100333.69;5371050;26;20012;-69
2024/04/19 07:00:15;;;;;;;7.82;0.95;;;;;;;8.25;46.84;100325.59;5355342;26;20563;-68
2024/04/19 07:02:40;;;;;;;7.85;0.40;;;;;;;9.73;43.07;100315.91;5338268;26;20381;-68
2024/04/19 07:05:06;;;;;;;1.13;0.20;;;;;;;9.67;43.93;100321.41;5363816;26;20015;-69
2024/04/19 07:07:31;;;;;;;7.53;0.50;;;;;;;8.61;44.44;100317.25;5351266;26;20017;-68
2024/04/19 07:09:57;;;;;;;6.95;1.10;;;;;;;7.40;47.13;100320.94;5363133;26;20320;-69
2024/04/19 07:12:22;;;;;;;7.40;0.20;;;;;;;7.16;48.87;100319.19;5354003;26;20011;-69
2024/04/19 07:14:49;;;;;;;2.35;0.43;;;;;;;7.49;49.03;100314.56;5361523;26;20022;-68
2024/04/19 07:17:14;;;;;;;9.35;0.30;;;;;;;8.84;45.46;100309.34;5362872;26;20007;-68
2024/04/19 07:19:40;;;;;;;6.70;0.38;;;;;;;10.29;42.15;100311.63;5386209;26;20051;-67
2024/04/19 07:22:05;;;;;;;14.15;0.82;;;;;;;11.29;40.80;100306.69;5412154;26;20011;-68
2024/04/19 07:24:31;;;;;;;5.18;1.45;;;;;;;11.88;40.01;100315.75;5396151;26;20039;-69
2024/04/19 07:26:56;;;;;;;4.85;0.40;;;;;;;11.16;39.87;100297.78;5399702;26;20542;-69
2024/04/19 07:29:22;;;;;;;4.03;0.43;;;;;;;9.52;42.80;100309.06;5372522;26;20406;-68
2024/04/19 07:31:47;;;;;;;2.00;0.80;;;;;;;8.53;44.18;100315.78;5383007;26;20098;-69
2024/04/19 07:34:13;;;;;;;6.25;0.65;;;;;;;7.97;46.27;100311.06;5361753;26;20039;-68
2024/04/19 07:36:39;;;;;;;4.95;0.40;;;;;;;7.05;47.19;100319.56;5352600;26;22021;-69
2024/04/19 07:39:04;;;;;;;5.85;0.30;;;;;;;7.15;47.34;100315.72;5348575;26;20000;-68
2024/04/19 07:41:30;;;;;;;2.00;0.32;;;;;;;7.13;47.21;100309.72;5339886;26;20018;-67
2024/04/19 07:43:55;;;;;;;4.35;0.32;;;;;;;6.73;47.58;100318.88;5354200;26;20010;-67
2024/04/19 07:46:21;;;;;;;3.78;0.50;;;;;;;6.60;48.68;100307.19;5360425;26;20088;-68
2024/04/19 07:48:46;;;;;;;4.00;0.82;;;;;;;6.19;50.38;100327.47;5373388;26;20849;-69
2024/04/19 07:51:11;;;;;;;3.70;0.75;;;;;;;5.46;51.77;100329.56;5409548;26;20010;-69
2024/04/19 07:53:37;;;;;;;1.77;0.40;;;;;;;5.93;51.77;100331.72;5388107;26;20015;-68
2024/04/19 07:56:02;;;;;;;5.60;0.63;;;;;;;5.98;52.03;100322.03;5403155;26;20006;-69
2024/04/19 07:58:28;;;;;;;4.57;0.40;;;;;;;6.86;50.54;100315.00;5384892;26;21290;-69
2024/04/19 08:00:53;;;;;;;9.13;1.27;;;;;;;6.93;49.86;100320.78;5401768;26;20079;-68
2024/04/19 08:03:19;;;;;;;4.30;0.47;;;;;;;8.00;48.07;100318.75;5404406;26;20010;-69
2024/04/19 08:05:45;;;;;;;19.70;2.15;;;;;;;8.17;47.47;100312.06;5408988;26;20095;-68
2024/04/19 08:08:10;;;;;;;8.27;0.60;;;;;;;8.45;47.34;100306.59;5392503;26;20022;-67
2024/04/19 08:10:36;;;;;;;7.47;0.90;;;;;;;8.72;46.26;100299.47;5392984;26;20006;-68
2024/04/19 08:13:01;;;;;;;8.25;1.08;;;;;;;8.89;46.00;100281.34;5394190;26;20002;-69
2024/04/19 08:15:26;;;;;;;7.63;1.10;;;;;;;9.15;45.27;100305.47;5387335;26;20024;-69
2024/04/19 08:17:52;;;;;;;3.83;0.93;;;;;;;8.70;46.54;100296.03;5392722;25;20030;-69
2024/04/19 08:20:18;;;;;;;3.70;0.60;;;;;;;8.97;46.28;100289.69;5395491;26;20017;-69
2024/04/19 08:22:43;;;;;;;7.10;1.30;;;;;;;8.66;45.31;100276.22;5394558;26;20022;-69
2024/04/19 08:25:09;;;;;;;9.70;1.52;;;;;;;8.26;45.96;100286.50;5400308;26;20111;-68
2024/04/19 08:27:35;;;;;;;5.88;0.80;;;;;;;8.81;45.26;100278.22;5385962;25;20007;-69
2024/04/19 08:30:01;;;;;;;10.63;0.82;;;;;;;9.50;43.31;100287.41;5341443;26;20015;-68
2024/04/19 08:32:27;;;;;;;6.25;0.63;;;;;;;9.40;41.55;100281.75;5356694;26;20832;-69
2024/04/19 08:34:55;;;;;;;3.10;0.93;;;;;;;9.19;41.38;100284.41;5398294;26;20016;-69
2024/04/19 08:37:22;;;;;;;4.38;0.43;;;;;;;9.84;40.35;100296.38;5398865;26;20006;-69
2024/04/19 08:39:51;;;;;;;7.25;0.50;;;;;;;9.31;40.48;100298.66;5383195;26;22219;-69
2024/04/19 08:42:18;;;;;;;3.95;0.65;;;;;;;8.69;40.55;100286.50;5393167;26;20040;-69
2024/04/19 08:44:47;;;;;;;2.63;1.13;;;;;;;8.56;41.98;100294.84;5391562;26;20002;-69
2024/04/19 08:47:17;;;;;;;2.58;0.20;;;;;;;8.19;42.60;100289.41;5379540;26;20006;-70
2024/04/19 08:49:43;;;;;;;3.85;0.85;;;;;;;8.17;42.91;100280.81;5387631;26;19992;-70
2024/04/19 08:52:09;;;;;;;3.42;0.52;;;;;;;7.88;43.32;100277.59;5395885;26;20707;-68
2024/04/19 08:54:36;;;;;;;5.70;0.35;;;;;;;7.96;43.48;100288.56;5385404;26;20104;-68
2024/04/19 08:57:04;;;;;;;2.33;0.73;;;;;;;8.36;43.93;100287.84;5396241;26;20022;-69
2024/04/19 08:59:33;;;;;;;3.72;0.75;;;;;;;8.30;43.77;100289.84;5386412;26;20114;-69
2024/04/19 09:01:58;;;;;;;1.52;0.30;;;;;;;8.79;43.65;100282.66;5400914;26;20156;-68
2024/04/19 09:04:24;;;;;;;6.07;2.00;;;;;;;8.63;42.94;100278.94;5371625;25;20023;-70
2024/04/19 09:06:49;;;;;;;6.78;0.55;;;;;;;8.20;43.38;100276.31;5346764;26;22491;-69
2024/04/19 09:09:15;;;;;;;4.65;0.30;;;;;;;7.92;45.09;100284.38;5389496;26;20007;-71
2024/04/19 09:11:44;;;;;;;11.98;1.35;;;;;;;7.60;45.69;100296.84;5389125;26;20003;-69
2024/04/19 09:14:10;;;;;;;9.93;1.25;;;;;;;7.69;46.35;100293.03;5416330;26;20006;-68
2024/04/19 09:16:36;;;;;;;8.98;1.10;;;;;;;6.90;47.18;100290.56;5383822;26;20072;-69
2024/04/19 09:19:01;;;;;;;2.83;0.63;;;;;;;7.09;47.25;100292.56;5373073;26;20713;-69
2024/04/19 09:21:27;;;;;;;7.32;0.55;;;;;;;7.24;47.58;100285.97;5359251;26;20098;-69
2024/04/19 09:23:55;;;;;;;8.73;0.95;;;;;;;7.98;46.39;100278.06;5355640;26;20005;-69
2024/04/19 09:26:22;;;;;;;3.75;0.47;;;;;;;8.89;44.27;100281.34;5357523;26;20000;-69
2024/04/19 09:28:48;;;;;;;4.10;0.60;;;;;;;8.91;43.86;100274.31;5362724;26;20007;-69
2024/04/19 09:31:14;;;;;;;9.73;1.15;;;;;;;8.85;45.35;100284.16;5397051;26;20227;-71
2024/04/19 09:33:41;;;;;;;8.60;0.82;;;;;;;8.02;45.12;100277.88;5360280;26;20480;-69
2024/04/19 09:36:08;;;;;;;9.63;1.23;;;;;;;8.22;45.21;100282.31;5399118;26;20016;-69
2024/04/19 09:38:39;;;;;;;5.05;1.00;;;;;;;8.42;44.67;100280.69;5377267;26;20089;-69
2024/04/19 09:41:14;;;;;;;11.23;1.65;;;;;;;8.55;43.77;100289.69;5400004;26;20018;-69
2024/04/19 09:43:47;;;;;;;7.43;0.82;;;;;;;8.71;42.53;100279.50;5383251;26;20634;-69
2024/04/19 09:46:13;;;;;;;2.65;0.82;;;;;;;8.50;41.86;100279.47;5400935;26;20321;-69
2024/04/19 09:48:42;;;;;;;5.63;0.65;;;;;;;7.76;42.52;100285.84;5359254;26;20003;-70
2024/04/19 09:51:14;;;;;;;4.47;0.82;;;;;;;7.83;42.37;100277.75;5381725;26;20466;-69
2024/04/19 09:53:44;;;;;;;9.32;0.47;;;;;;;7.95;41.16;100272.06;5373709;26;20047;-69
2024/04/19 09:56:13;;;;;;;8.63;1.02;;;;;;;8.00;42.11;100277.09;5385152;26;20051;-69
2024/04/19 09:58:38;;;;;;;9.27;0.50;;;;;;;7.70;43.08;100276.53;5366751;26;20338;-68
2024/04/19 10:01:04;;;;;;;6.47;0.50;;;;;;;7.22;43.93;100280.84;5392126;26;20003;-69
2024/04/19 10:03:30;;;;;;;10.10;0.82;;;;;;;7.99;43.40;100274.56;5377017;26;20013;-68
2024/04/19 10:05:57;;;;;;;9.85;0.68;;;;;;;7.15;44.75;100268.94;5385947;26;20015;-69
2024/04/19 10:08:27;;;;;;;3.78;0.77;;;;;;;7.71;44.12;100275.59;5363138;26;20019;-68
2024/04/19 10:10:54;;;;;;;7.78;0.70;;;;;;;7.47;44.32;100269.56;5365485;26;20149;-69
2024/04/19 10:13:21;;;;;;;11.52;1.27;;;;;;;7.95;42.98;100266.03;5333768;26;20024;-69
2024/04/19 10:15:47;;;;;;;9.18;0.65;;;;;;;7.79;44.42;100259.72;5344208;26;20409;-71
2024/04/19 10:18:13;;;;;;;3.08;0.40;;;;;;;7.66;43.98;100267.13;5343436;26;20089;-70
2024/04/19 10:20:40;;;;;;;6.18;0.40;;;;;;;7.94;43.07;100270.38;5342997;26;21005;-69
2024/04/19 10:23:06;;;;;;;7.97;1.27;;;;;;;8.13;43.42;100259.25;5347633;26;20026;-70
2024/04/19 10:25:38;;;;;;;7.68;0.43;;;;;;;7.62;44.55;100269.00;5346156;26;20007;-69
2024/04/19 10:28:08;;;;;;;7.13;0.45;;;;;;;7.62;43.86;100269.00;5346362;26;20019;-69
2024/04/19 10:30:34;;;;;;;4.30;0.25;;;;;;;8.20;43.12;100249.44;5394132;26;20043;-70
2024/04/19 10:33:00;;;;;;;4.78;0.68;;;;;;;8.51;42.70;100249.03;5396138;26;20006;-69
2024/04/19 10:35:26;;;;;;;3.72;0.40;;;;;;;8.22;43.97;100242.44;5394604;26;20029;-69
2024/04/19 10:37:51;;;;;;;5.18;0.55;;;;;;;8.69;42.73;100242.22;5392256;26;20262;-70
2024/04/19 10:40:19;;;;;;;7.05;1.92;;;;;;;9.26;42.07;100258.91;5395890;26;20019;-69
2024/04/19 10:42:45;;;;;;;2.20;0.95;;;;;;;8.97;42.79;100245.38;5389206;25;20002;-70
2024/04/19 10:45:14;;;;;;;3.30;0.38;;;;;;;8.31;42.81;100242.06;5363372;26;20089;-70
2024/04/19 10:47:43;;;;;;;3.58;0.40;;;;;;;7.69;45.07;100256.59;5357128;25;20043;-70
2024/04/19 10:50:09;;;;;;;9.48;0.93;;;;;;;8.34;44.25;100252.34;5360854;26;20003;-70
2024/04/19 10:52:35;;;;;;;7.85;0.85;;;;;;;9.03;42.55;100249.50;5361771;26;20022;-70
2024/04/19 10:55:01;;;;;;;6.25;1.25;;;;;;;9.55;41.34;100243.72;5359163;26;20009;-69
2024/04/19 10:57:32;;;;;;;6.15;1.05;;;;;;;8.32;42.21;100259.38;5331885;26;20037;-69
2024/04/19 10:59:58;;;;;;;7.05;0.40;;;;;;;7.55;43.88;100257.13;5391090;26;20398;-69
2024/04/19 11:02:26;;;;;;;14.70;1.65;;;;;;;6.94;46.20;100254.97;5396532;26;20873;-68
2024/04/19 11:04:52;;;;;;;9.00;1.42;;;;;;;6.87;46.42;100264.72;5389875;26;20003;-69
2024/04/19 11:07:20;;;;;;;7.80;1.15;;;;;;;6.61;46.90;100262.16;5396440;26;20091;-69
2024/04/19 11:09:48;;;;;;;12.02;1.10;;;;;;;6.85;46.90;100240.53;5380508;25;20054;-69
2024/04/19 11:12:14;;;;;;;7.95;1.20;;;;;;;7.54;45.56;100242.41;5402803;26;20527;-70
2024/04/19 11:14:40;;;;;;;5.97;2.25;;;;;;;8.00;43.17;100243.25;5394145;26;20008;-69
2024/04/19 11:17:05;;;;;;;21.15;1.90;;;;;;;8.05;40.55;100243.97;5401462;26;20026;-70
2024/04/19 11:19:32;;;;;;;5.05;1.27;;;;;;;7.98;40.13;100255.53;5389680;26;20003;-70
2024/04/19 11:21:58;;;;;;;12.38;1.77;;;;;;;8.08;39.98;100243.81;5387797;26;20026;-69
2024/04/19 11:24:25;;;;;;;7.57;1.10;;;;;;;8.35;38.70;100248.84;5402765;26;20177;-70
2024/04/19 11:26:51;;;;;;;14.20;1.67;;;;;;;8.55;38.79;100235.84;5384005;26;20760;-70
2024/04/19 11:29:18;;;;;;;12.45;1.48;;;;;;;8.51;38.55;100236.03;5396420;26;20139;-69
2024/04/19 11:31:47;;;;;;;7.13;1.45;;;;;;;8.39;39.06;100234.78;5395419;26;20015;-69
2024/04/19 11:34:13;;;;;;;8.80;1.63;;;;;;;8.13;39.22;100231.47;5389475;26;20093;-69